Reston, VA

3:30 AM EDT on October 01, 2016 (GMT -0400)
| | Change Station

Elev -9999 ft 0.00 °N, 0.00 °E | Updated

Rain
Rain
62 °F
Feels Like 62 °F
N
7
Wind Variable Wind from ENE
Gusts 12 mph

Today
High -- | Low -- °F
--% Chance of Precip.
Yesterday
High -- | Low -- °F
Precip. -- in
Pressure 30.11 in
Visibility 3.0 miles
Clouds Overcast 500 ft
Dew Point 61 °F
Humidity 97%
Rainfall --
Snow Depth Not available.
7:05 AM 6:51 PM
New Moon, 0% visible
METAR KIAD 010652Z VRB04KT 3SM -DZ BR OVC005 17/16 A3011 RMK AO2 SLP195 P0003 T01670161
Pressure 30.11 in
Visibility 3.0 miles
Clouds Overcast 500 ft
Dew Point 61 °F
Humidity 97%
Rainfall --
Snow Depth Not available.
7:05 AM 6:51 PM
New Moon, 0% visible
METAR KIAD 010652Z VRB04KT 3SM -DZ BR OVC005 17/16 A3011 RMK AO2 SLP195 P0003 T01670161

10-Day Weather Forecast

Almanac

Astronomy

Oct. 01, 2016 Rise Set
Actual Time
Civil Twilight
Nautical Twilight
Astronomical Twilight
Moon
Length of Visible Light
Length of Day
Tomorrow will be .
, % of the Moon is Illuminated

Today's Extremes

State Highs State Lows

Community

WunderPhotos

Upload Photos

1,942,898 photos uploaded!

WunderBlog® & News

Nearby

Air Quality

  Air Quality AQ Index Pollutant
Not available.

Snow Depth

Station Depth Elevation

Earthquake Activity

City Distance Mag. Time & Date
Minimum magnitude displayed is 2.5.

Coastal Water Temperatures

Place Temperature

Stations

Nearby Weather Stations

Station Location Temp. Windchill Dew Point Humidity Wind Precip. Elev Updated Type
                   

Watches & Warnings

There are currently no watches in effect.